Time;durP1;ratioP1;P1;durP2;ratioP2;P2;SDS_P1;SDS_P2;PMS_P1;PMS_P2;Temp;Humidity;BMP_temperature;BMP_pressure;BME280_temperature;BME280_humidity;BME280_pressure;Samples;Min_cycle;Max_cycle;Signal;HPM_P1;HPM_P2
2022/09/15 00:01:25;;;;;;;7.75;3.40;;;14.20;99.90;;;;;;5022574;28;20107;-76
2022/09/15 00:03:52;;;;;;;6.78;3.40;;;14.20;99.90;;;;;;5024800;28;20030;-76
2022/09/15 00:06:18;;;;;;;6.40;3.80;;;14.20;99.90;;;;;;5003583;28;20077;-76
2022/09/15 00:08:43;;;;;;;5.65;3.63;;;14.30;99.90;;;;;;5023099;28;20092;-76
2022/09/15 00:11:24;;;;;;;5.72;3.33;;;14.20;99.90;;;;;;5023340;28;20052;-77
2022/09/15 00:13:51;;;;;;;6.70;3.30;;;14.20;99.90;;;;;;5023370;28;20513;-76
2022/09/15 00:16:19;;;;;;;5.25;3.13;;;14.20;99.90;;;;;;5021958;28;20088;-77
2022/09/15 00:18:45;;;;;;;7.32;3.33;;;14.10;99.90;;;;;;5004029;28;20401;-76
2022/09/15 00:21:15;;;;;;;4.18;2.60;;;14.10;99.90;;;;;;5019944;28;20062;-75
2022/09/15 00:23:41;;;;;;;6.10;2.67;;;14.20;99.90;;;;;;5012730;28;20041;-75
2022/09/15 00:26:09;;;;;;;5.63;2.70;;;14.10;99.90;;;;;;5024898;28;20037;-76
2022/09/15 00:28:36;;;;;;;9.15;3.10;;;14.10;99.90;;;;;;5023026;28;20041;-76
2022/09/15 00:31:06;;;;;;;5.18;2.53;;;14.10;99.90;;;;;;5024238;28;20037;-76
2022/09/15 00:33:32;;;;;;;4.32;2.42;;;14.00;99.90;;;;;;5023313;28;20108;-75
2022/09/15 00:36:01;;;;;;;6.07;2.65;;;14.00;99.90;;;;;;5019575;28;20069;-76
2022/09/15 00:38:27;;;;;;;6.20;2.60;;;14.10;99.90;;;;;;5019707;28;20045;-76
2022/09/15 00:40:55;;;;;;;4.30;2.63;;;14.10;99.90;;;;;;5023428;28;20052;-76
2022/09/15 00:43:45;;;;;;;6.07;2.90;;;14.10;99.90;;;;;;5021265;28;20371;-75
2022/09/15 00:46:11;;;;;;;6.68;2.78;;;14.10;99.90;;;;;;5011831;28;20049;-76
2022/09/15 00:48:41;;;;;;;4.75;2.97;;;14.00;99.90;;;;;;5004659;28;20045;-76
2022/09/15 00:51:09;;;;;;;8.10;3.30;;;14.10;99.90;;;;;;5019560;28;20057;-76
2022/09/15 00:53:35;;;;;;;4.38;2.80;;;14.10;99.90;;;;;;5006320;28;20129;-76
2022/09/15 00:56:03;;;;;;;5.35;3.08;;;14.10;99.90;;;;;;5024221;28;20050;-76
2022/09/15 00:58:57;;;;;;;5.18;3.00;;;14.10;99.90;;;;;;5019138;28;20045;-76
2022/09/15 01:01:26;;;;;;;5.35;3.20;;;14.10;99.90;;;;;;5005305;28;20055;-76
2022/09/15 01:03:52;;;;;;;6.68;2.97;;;14.20;99.90;;;;;;5005723;28;20045;-76
2022/09/15 01:06:40;;;;;;;5.43;3.20;;;14.10;99.90;;;;;;5018314;28;20045;-75
2022/09/15 01:09:32;;;;;;;8.70;3.90;;;14.20;99.90;;;;;;5019355;28;20034;-76
2022/09/15 01:11:57;;;;;;;7.18;3.10;;;14.10;99.90;;;;;;5024007;28;20042;-76
2022/09/15 01:14:23;;;;;;;5.55;3.17;;;14.10;99.90;;;;;;5006009;28;20053;-76
2022/09/15 01:17:02;;;;;;;5.38;3.17;;;14.10;99.90;;;;;;5002241;28;20116;-76
2022/09/15 01:19:46;;;;;;;4.50;3.60;;;14.20;99.90;;;;;;5021104;28;20116;-76
2022/09/15 01:22:32;;;;;;;6.20;3.22;;;14.20;99.90;;;;;;5020905;28;20079;-76
2022/09/15 01:25:34;;;;;;;4.43;3.40;;;14.20;99.90;;;;;;5016958;28;20054;-76
2022/09/15 01:28:33;;;;;;;5.10;3.47;;;14.20;99.90;;;;;;5005087;28;20136;-76
2022/09/15 01:31:06;;;;;;;5.57;4.00;;;14.20;99.90;;;;;;5001275;28;20065;-76
2022/09/15 01:33:48;;;;;;;6.10;4.88;;;14.20;99.90;;;;;;5005763;28;20056;-76
2022/09/15 01:36:36;;;;;;;6.55;4.97;;;14.30;99.90;;;;;;5016015;28;20057;-77
2022/09/15 01:39:23;;;;;;;5.20;4.32;;;14.30;99.90;;;;;;5025079;28;20400;-77
2022/09/15 01:42:05;;;;;;;7.53;4.90;;;14.30;99.90;;;;;;5000802;28;20054;-76
2022/09/15 01:44:44;;;;;;;8.07;5.07;;;14.30;99.90;;;;;;5023125;28;20124;-76
2022/09/15 01:47:13;;;;;;;8.02;4.80;;;14.30;99.90;;;;;;5021946;28;20112;-76
2022/09/15 01:49:55;;;;;;;9.65;4.90;;;14.40;99.90;;;;;;5003898;28;20049;-76
2022/09/15 01:52:23;;;;;;;7.43;4.95;;;14.40;99.90;;;;;;5004508;28;20057;-76
2022/09/15 01:54:54;;;;;;;6.72;4.80;;;14.40;99.90;;;;;;5021234;28;20045;-76
2022/09/15 01:57:21;;;;;;;6.68;4.50;;;14.40;99.90;;;;;;5021939;28;20045;-76
2022/09/15 01:59:51;;;;;;;5.65;4.35;;;14.40;99.90;;;;;;5021085;28;20069;-76
2022/09/15 02:02:21;;;;;;;6.07;3.85;;;14.30;99.90;;;;;;5019157;28;20037;-75
2022/09/15 02:04:55;;;;;;;7.80;4.38;;;14.40;99.90;;;;;;5020437;28;20489;-76
2022/09/15 02:07:46;;;;;;;7.20;4.00;;;14.40;99.90;;;;;;5004433;28;20048;-76
2022/09/15 02:10:18;;;;;;;6.07;3.92;;;14.50;99.90;;;;;;5014639;28;20057;-76
2022/09/15 02:12:52;;;;;;;7.80;4.07;;;14.50;99.90;;;;;;5005235;28;20124;-76
2022/09/15 02:15:29;;;;;;;7.95;3.70;;;14.50;99.90;;;;;;5020890;28;20152;-76
2022/09/15 02:17:57;;;;;;;9.45;4.00;;;14.50;99.90;;;;;;5020803;28;20109;-76
2022/09/15 02:20:33;;;;;;;7.18;4.28;;;14.50;99.90;;;;;;5020374;28;20106;-76
2022/09/15 02:23:07;;;;;;;6.38;3.67;;;14.50;99.90;;;;;;5018424;28;20205;-76
2022/09/15 02:25:42;;;;;;;6.78;4.10;;;14.60;99.90;;;;;;5018408;28;20045;-76
2022/09/15 02:28:11;;;;;;;6.32;4.25;;;14.60;99.90;;;;;;5017319;28;20206;-76
2022/09/15 02:30:40;;;;;;;6.60;3.97;;;14.60;99.90;;;;;;5011207;28;20037;-76
2022/09/15 02:33:10;;;;;;;5.65;4.03;;;14.60;99.90;;;;;;5020560;28;20059;-76
2022/09/15 02:35:38;;;;;;;8.13;5.20;;;14.60;99.90;;;;;;5020495;28;20392;-76
2022/09/15 02:38:05;;;;;;;;;;;14.60;99.90;;;;;;5006018;28;20045;-76
2022/09/15 02:40:31;;;;;;;;;;;14.60;99.90;;;;;;5001646;28;19928;-76
2022/09/15 02:43:01;;;;;;;7.85;4.63;;;14.50;99.90;;;;;;5017436;28;19920;-76
2022/09/15 02:45:29;;;;;;;6.65;3.95;;;14.50;99.90;;;;;;5019509;28;20121;-76
2022/09/15 02:47:56;;;;;;;6.40;4.20;;;14.50;99.90;;;;;;5028520;28;20250;-76
2022/09/15 02:50:25;;;;;;;7.28;4.60;;;14.50;99.90;;;;;;5003530;28;20045;-76
2022/09/15 02:52:51;;;;;;;9.38;4.43;;;14.50;99.90;;;;;;5023127;28;20500;-76
2022/09/15 02:55:17;;;;;;;5.40;4.10;;;14.50;99.90;;;;;;4999904;28;20058;-77
2022/09/15 02:57:43;;;;;;;9.85;5.00;;;14.50;99.90;;;;;;4999801;28;20049;-77
2022/09/15 03:00:12;;;;;;;10.38;6.28;;;14.60;99.90;;;;;;5003528;28;20512;-76
2022/09/15 03:02:44;;;;;;;15.45;7.45;;;14.50;99.90;;;;;;5002507;28;20079;-76
2022/09/15 03:05:11;;;;;;;10.35;7.28;;;14.50;99.90;;;;;;5016122;28;20117;-76
2022/09/15 03:07:37;;;;;;;11.75;7.63;;;14.50;99.90;;;;;;5021931;28;20048;-76
2022/09/15 03:10:04;;;;;;;12.63;8.00;;;14.50;99.90;;;;;;5001487;28;20046;-76
2022/09/15 03:12:30;;;;;;;;;;;14.50;99.90;;;;;;5022008;28;20060;-77
2022/09/15 03:14:55;;;;;;;13.68;8.07;;;14.50;99.90;;;;;;5018578;28;20493;-77
2022/09/15 03:17:21;;;;;;;13.15;8.52;;;14.50;99.90;;;;;;5000707;28;20037;-76
2022/09/15 03:19:47;;;;;;;13.60;8.95;;;14.50;99.90;;;;;;5020952;28;20171;-76
2022/09/15 03:22:12;;;;;;;13.52;7.40;;;14.40;99.90;;;;;;5027096;28;20128;-77
2022/09/15 03:24:38;;;;;;;8.95;4.18;;;14.40;99.90;;;;;;5025600;28;20047;-77
2022/09/15 03:27:04;;;;;;;7.60;3.83;;;14.50;99.90;;;;;;5025014;28;20473;-76
2022/09/15 03:29:30;;;;;;;11.57;2.95;;;14.50;99.90;;;;;;5024443;28;20041;-76
2022/09/15 03:31:56;;;;;;;5.53;2.55;;;14.40;99.90;;;;;;5026215;28;20042;-75
2022/09/15 03:34:22;;;;;;;7.55;3.20;;;14.40;99.90;;;;;;5006221;28;20543;-77
2022/09/15 03:36:47;;;;;;;9.50;3.85;;;14.40;99.90;;;;;;5024191;28;20033;-76
2022/09/15 03:39:13;;;;;;;9.90;4.30;;;14.50;99.90;;;;;;5007487;28;20105;-76
2022/09/15 03:41:39;;;;;;;6.97;4.05;;;14.40;99.90;;;;;;5021837;28;20603;-76
2022/09/15 03:44:04;;;;;;;10.77;4.53;;;14.40;99.90;;;;;;5006203;28;20049;-76
2022/09/15 03:46:30;;;;;;;10.75;4.03;;;14.40;99.90;;;;;;5023492;28;20578;-75
2022/09/15 03:48:56;;;;;;;10.75;3.83;;;14.40;99.90;;;;;;5007240;28;20052;-76
2022/09/15 03:51:22;;;;;;;7.03;3.63;;;14.40;99.90;;;;;;5023406;28;20053;-76
2022/09/15 03:53:48;;;;;;;7.30;3.30;;;14.40;99.90;;;;;;5008739;28;20050;-76
2022/09/15 03:56:32;;;;;;;7.15;2.92;;;14.50;99.90;;;;;;5021517;28;20061;-76
2022/09/15 03:59:02;;;;;;;6.55;2.70;;;14.40;99.90;;;;;;5006423;28;20080;-76
2022/09/15 04:01:29;;;;;;;7.68;2.33;;;14.50;99.90;;;;;;5020448;28;20401;-76
2022/09/15 04:03:54;;;;;;;7.72;2.67;;;14.50;99.90;;;;;;5005663;28;20554;-76
2022/09/15 04:06:21;;;;;;;7.72;2.40;;;14.40;99.90;;;;;;5018800;28;20038;-75
2022/09/15 04:08:48;;;;;;;5.47;1.85;;;14.40;99.90;;;;;;5024845;28;20562;-76
2022/09/15 04:11:14;;;;;;;9.10;2.40;;;14.40;99.90;;;;;;5021125;28;20054;-76
2022/09/15 04:13:41;;;;;;;8.10;1.75;;;14.40;99.90;;;;;;5007765;28;20045;-76
2022/09/15 04:16:11;;;;;;;7.35;1.95;;;14.40;99.90;;;;;;5003550;28;20058;-76
2022/09/15 04:18:37;;;;;;;6.57;1.70;;;14.50;99.90;;;;;;5006253;28;20038;-76
2022/09/15 04:21:09;;;;;;;7.25;1.80;;;14.40;99.90;;;;;;5004022;28;20051;-75
2022/09/15 04:23:35;;;;;;;7.40;1.73;;;14.40;99.90;;;;;;5023255;28;20045;-76
2022/09/15 04:26:06;;;;;;;7.00;2.00;;;14.40;99.90;;;;;;5005324;28;20045;-76
2022/09/15 04:28:33;;;;;;;8.18;2.83;;;14.40;99.90;;;;;;5024536;28;20037;-76
2022/09/15 04:31:10;;;;;;;8.68;2.88;;;14.40;99.90;;;;;;5024004;28;20056;-76
2022/09/15 04:33:37;;;;;;;7.13;3.00;;;14.40;99.90;;;;;;5020777;28;20041;-76
2022/09/15 04:36:19;;;;;;;6.97;3.03;;;14.40;99.90;;;;;;5022276;28;20049;-76
2022/09/15 04:38:46;;;;;;;8.10;3.00;;;14.30;99.90;;;;;;5018194;28;20550;-76
2022/09/15 04:41:13;;;;;;;9.60;2.93;;;14.30;99.90;;;;;;5018699;28;20168;-77
2022/09/15 04:43:39;;;;;;;7.47;2.57;;;14.30;99.90;;;;;;5002693;28;20060;-76
2022/09/15 04:46:05;;;;;;;9.43;2.20;;;14.30;99.90;;;;;;5021754;28;20049;-76
2022/09/15 04:48:31;;;;;;;8.57;2.40;;;14.30;99.90;;;;;;5021664;28;20064;-76
2022/09/15 04:51:06;;;;;;;5.38;2.25;;;14.30;99.90;;;;;;5020357;28;20148;-76
2022/09/15 04:53:31;;;;;;;5.80;2.10;;;14.30;99.90;;;;;;5024757;28;20389;-76
2022/09/15 04:56:02;;;;;;;6.32;2.03;;;14.30;99.90;;;;;;5023882;28;20045;-76
2022/09/15 04:58:27;;;;;;;7.45;2.60;;;14.20;99.90;;;;;;5022137;28;20617;-76
2022/09/15 05:00:53;;;;;;;7.80;2.63;;;14.30;99.90;;;;;;5022948;28;20043;-76
2022/09/15 05:03:19;;;;;;;8.48;2.63;;;14.30;99.90;;;;;;5023647;28;20041;-76
2022/09/15 05:05:46;;;;;;;7.50;2.72;;;14.30;99.90;;;;;;5006795;28;20049;-77
2022/09/15 05:08:12;;;;;;;;;;;14.30;99.90;;;;;;5003279;28;20046;-76
2022/09/15 05:10:38;;;;;;;7.07;2.70;;;14.30;99.90;;;;;;5021639;28;19928;-77
2022/09/15 05:13:04;;;;;;;8.43;2.03;;;14.30;99.90;;;;;;5006946;28;20303;-75
2022/09/15 05:15:29;;;;;;;5.25;2.05;;;14.30;99.90;;;;;;5024387;28;20116;-76
2022/09/15 05:17:55;;;;;;;6.00;2.55;;;14.30;99.90;;;;;;5017002;28;20111;-76
2022/09/15 05:20:21;;;;;;;6.35;2.10;;;14.30;99.90;;;;;;5005894;28;20053;-76
2022/09/15 05:22:47;;;;;;;8.30;2.53;;;14.20;99.90;;;;;;5006741;28;20049;-76
2022/09/15 05:25:12;;;;;;;10.80;2.50;;;14.20;99.90;;;;;;5004066;28;20539;-77
2022/09/15 05:27:38;;;;;;;6.97;2.55;;;14.20;99.90;;;;;;5007953;28;20049;-77
2022/09/15 05:30:06;;;;;;;8.80;2.70;;;14.20;99.90;;;;;;5006988;28;20068;-78
2022/09/15 05:32:32;;;;;;;6.95;2.85;;;14.20;99.90;;;;;;5002925;28;20068;-77
2022/09/15 05:34:58;;;;;;;9.82;3.28;;;14.20;99.90;;;;;;5023562;28;20386;-77
2022/09/15 05:37:24;;;;;;;8.60;3.05;;;14.20;99.90;;;;;;5002703;28;20034;-76
2022/09/15 05:39:50;;;;;;;8.93;3.22;;;14.20;99.90;;;;;;5022150;28;21959;-77
2022/09/15 05:42:15;;;;;;;8.20;2.80;;;14.20;99.90;;;;;;5021360;28;20170;-77
2022/09/15 05:44:41;;;;;;;7.47;2.85;;;14.20;99.90;;;;;;5007945;28;20041;-77
2022/09/15 05:47:07;;;;;;;6.50;2.88;;;14.20;99.90;;;;;;4998761;28;20052;-77
2022/09/15 05:49:32;;;;;;;8.63;2.60;;;14.20;99.90;;;;;;5021133;28;20045;-78
2022/09/15 05:51:58;;;;;;;10.15;3.05;;;14.20;99.90;;;;;;4998700;28;20037;-78
2022/09/15 05:54:26;;;;;;;7.45;2.70;;;14.30;99.90;;;;;;5003362;28;20550;-78
2022/09/15 05:56:51;;;;;;;7.78;2.72;;;14.30;99.90;;;;;;5020657;28;20206;-78
2022/09/15 05:59:17;;;;;;;7.47;2.58;;;14.30;99.90;;;;;;5023404;28;20140;-80
2022/09/15 06:01:43;;;;;;;7.15;2.67;;;14.30;99.90;;;;;;5017824;28;20044;-81
2022/09/15 06:04:11;;;;;;;7.25;2.53;;;14.30;99.90;;;;;;5020619;28;20037;-78
2022/09/15 06:06:37;;;;;;;7.50;2.50;;;14.30;99.90;;;;;;5020450;28;20087;-77
2022/09/15 06:09:07;;;;;;;7.07;2.47;;;14.40;99.90;;;;;;5019055;28;20076;-76
2022/09/15 06:11:34;;;;;;;7.75;2.15;;;14.40;99.90;;;;;;5016392;28;20049;-77
2022/09/15 06:14:02;;;;;;;10.30;2.50;;;14.50;99.90;;;;;;5018137;28;20060;-78
2022/09/15 06:16:31;;;;;;;4.80;1.90;;;14.40;99.90;;;;;;5003002;28;20051;-78
2022/09/15 06:18:58;;;;;;;7.32;2.30;;;14.50;99.90;;;;;;5017548;28;20056;-78
2022/09/15 06:21:26;;;;;;;11.52;2.20;;;14.50;99.90;;;;;;5003898;28;20042;-78
2022/09/15 06:24:11;;;;;;;8.05;1.90;;;14.50;99.90;;;;;;5019086;28;20072;-77
2022/09/15 06:26:36;;;;;;;7.30;2.00;;;14.50;99.90;;;;;;5023099;28;20038;-78
2022/09/15 06:29:04;;;;;;;6.75;1.70;;;14.60;99.90;;;;;;5017539;28;20037;-79
2022/09/15 06:31:34;;;;;;;5.82;2.28;;;14.60;99.90;;;;;;5002749;28;20057;-77
2022/09/15 06:34:11;;;;;;;7.20;1.95;;;14.60;99.90;;;;;;5018790;28;21701;-82
2022/09/15 06:36:37;;;;;;;7.18;2.33;;;14.70;99.90;;;;;;5017264;28;20029;-84
2022/09/15 06:39:04;;;;;;;9.00;1.70;;;14.60;99.90;;;;;;4997067;28;20633;-84
2022/09/15 06:41:29;;;;;;;6.15;1.75;;;14.70;99.90;;;;;;5020595;28;20128;-82
2022/09/15 06:43:55;;;;;;;6.57;2.17;;;14.80;99.90;;;;;;5020309;28;20133;-82
2022/09/15 06:46:24;;;;;;;8.98;1.77;;;14.80;99.90;;;;;;5007222;28;20489;-81
2022/09/15 06:48:50;;;;;;;6.65;2.10;;;14.90;99.90;;;;;;5020328;28;20049;-86
2022/09/15 06:51:19;;;;;;;8.68;1.80;;;15.00;99.90;;;;;;5006778;28;20072;-88
2022/09/15 06:53:48;;;;;;;9.50;1.98;;;15.10;99.90;;;;;;5021692;28;20179;-85
2022/09/15 06:56:17;;;;;;;6.72;1.50;;;15.20;99.90;;;;;;5019698;28;20154;-84
2022/09/15 06:58:43;;;;;;;7.88;1.60;;;15.30;99.90;;;;;;5024437;28;20041;-85
2022/09/15 07:01:14;;;;;;;8.18;1.67;;;15.30;99.90;;;;;;5024647;28;20172;-88
2022/09/15 07:03:43;;;;;;;7.32;1.63;;;15.30;99.90;;;;;;5017252;28;20392;-87
2022/09/15 07:06:11;;;;;;;6.78;1.80;;;15.30;99.90;;;;;;5026097;28;20038;-83
2022/09/15 07:08:38;;;;;;;7.70;1.73;;;15.40;99.90;;;;;;5026527;28;20060;-86
2022/09/15 07:11:05;;;;;;;10.23;1.75;;;15.40;99.90;;;;;;5025696;28;20045;-80
2022/09/15 07:13:31;;;;;;;6.95;1.42;;;15.40;99.90;;;;;;5026416;28;20057;-87
2022/09/15 07:15:58;;;;;;;9.98;2.10;;;15.40;99.90;;;;;;5025745;28;20067;-87
2022/09/15 07:18:24;;;;;;;;;;;15.50;99.90;;;;;;5009370;28;20057;-83
2022/09/15 07:20:50;;;;;;;9.52;1.70;;;15.50;99.90;;;;;;5008436;28;19967;-81
2022/09/15 07:23:16;;;;;;;9.20;1.65;;;15.50;99.90;;;;;;5019520;28;20042;-85
2022/09/15 07:25:43;;;;;;;8.73;1.70;;;15.60;99.90;;;;;;5024497;28;20117;-84
2022/09/15 07:28:13;;;;;;;8.23;1.67;;;15.70;99.90;;;;;;5024269;28;20048;-86
2022/09/15 07:30:40;;;;;;;11.30;1.60;;;15.70;99.90;;;;;;5023729;28;20045;-85
2022/09/15 07:33:07;;;;;;;8.53;1.97;;;15.80;99.90;;;;;;5011920;28;20669;-89
2022/09/15 07:35:33;;;;;;;11.93;2.53;;;15.80;99.90;;;;;;5026666;28;20791;-85
2022/09/15 07:37:59;;;;;;;7.90;2.10;;;15.80;99.90;;;;;;5025821;28;20056;-84
2022/09/15 07:40:26;;;;;;;8.55;2.00;;;15.90;99.90;;;;;;4996421;28;20096;-85
2022/09/15 07:42:52;;;;;;;;;;;15.90;99.90;;;;;;5008774;28;20107;-84
2022/09/15 07:45:18;;;;;;;8.02;1.75;;;15.80;99.90;;;;;;5022840;28;20392;-83
2022/09/15 07:47:44;;;;;;;10.02;2.10;;;15.80;99.90;;;;;;5023051;28;20056;-85
2022/09/15 07:50:13;;;;;;;6.43;1.60;;;15.90;99.90;;;;;;5025754;28;20084;-84
2022/09/15 07:52:39;;;;;;;7.35;1.50;;;15.80;99.90;;;;;;5028516;28;20517;-84
2022/09/15 07:55:05;;;;;;;7.65;1.40;;;15.90;99.90;;;;;;5010089;28;20092;-84
2022/09/15 07:57:32;;;;;;;7.53;1.60;;;15.90;99.90;;;;;;5014390;28;20037;-84
2022/09/15 07:59:58;;;;;;;9.55;2.20;;;15.90;99.90;;;;;;5038317;28;20044;-83
2022/09/15 08:02:23;;;;;;;9.00;1.77;;;15.90;99.90;;;;;;5038072;28;20038;-82
2022/09/15 08:04:49;;;;;;;7.15;1.73;;;16.00;99.90;;;;;;5030875;28;20092;-82
2022/09/15 08:07:14;;;;;;;8.38;1.90;;;16.00;99.90;;;;;;5030504;28;20057;-84
2022/09/15 08:09:40;;;;;;;7.00;1.67;;;16.00;99.90;;;;;;5031078;28;20041;-85
2022/09/15 08:12:07;;;;;;;8.43;1.60;;;16.10;99.90;;;;;;5027653;28;20045;-82
2022/09/15 08:14:33;;;;;;;8.30;2.13;;;16.10;99.90;;;;;;5003893;28;20065;-74
2022/09/15 08:17:00;;;;;;;6.35;1.42;;;16.10;99.90;;;;;;5030534;28;20048;-83
2022/09/15 08:19:27;;;;;;;7.15;1.60;;;16.10;99.90;;;;;;5026789;28;20045;-84
2022/09/15 08:21:53;;;;;;;6.75;1.70;;;16.10;99.90;;;;;;5026460;28;20089;-82
2022/09/15 08:24:18;;;;;;;7.53;1.83;;;16.20;99.90;;;;;;5026981;28;20207;-83
2022/09/15 08:26:45;;;;;;;4.60;1.30;;;16.30;99.90;;;;;;5009336;28;20072;-82
2022/09/15 08:29:12;;;;;;;5.60;1.58;;;16.30;99.90;;;;;;5024120;28;20579;-83
2022/09/15 08:31:38;;;;;;;7.50;1.70;;;16.40;99.90;;;;;;5027391;28;20048;-82
2022/09/15 08:34:05;;;;;;;8.57;1.77;;;16.40;99.90;;;;;;5027168;28;20037;-82
2022/09/15 08:36:32;;;;;;;8.35;1.30;;;16.50;99.90;;;;;;5026538;28;20060;-83
2022/09/15 08:38:58;;;;;;;6.18;1.13;;;16.50;99.90;;;;;;5025161;28;20111;-83
2022/09/15 08:41:33;;;;;;;6.35;1.30;;;16.60;99.90;;;;;;5024242;28;20529;-82
2022/09/15 08:44:23;;;;;;;7.15;1.42;;;16.60;99.90;;;;;;5027351;28;20050;-83
2022/09/15 08:47:01;;;;;;;7.45;1.30;;;16.60;99.90;;;;;;5026298;28;20052;-83
2022/09/15 08:49:36;;;;;;;5.80;1.20;;;16.60;99.90;;;;;;5004401;28;20133;-85
2022/09/15 08:52:12;;;;;;;8.50;1.25;;;16.60;99.90;;;;;;5025974;28;20052;-83
2022/09/15 08:54:38;;;;;;;4.93;0.97;;;16.70;99.90;;;;;;5026542;28;20073;-82
2022/09/15 08:57:08;;;;;;;7.10;1.40;;;16.80;99.90;;;;;;5025720;28;20319;-83
2022/09/15 08:59:36;;;;;;;5.18;1.38;;;16.80;99.90;;;;;;5024674;28;20077;-83
2022/09/15 09:02:37;;;;;;;4.07;1.02;;;16.90;99.90;;;;;;5023139;28;20050;-83
2022/09/15 09:05:21;;;;;;;8.07;2.00;;;17.00;99.90;;;;;;5008452;28;20041;-81
2022/09/15 09:08:14;;;;;;;5.75;1.45;;;17.00;99.90;;;;;;5027322;28;20095;-83
2022/09/15 09:10:47;;;;;;;5.53;1.35;;;17.00;99.90;;;;;;5004614;28;20049;-83
2022/09/15 09:13:27;;;;;;;6.00;1.15;;;17.00;99.90;;;;;;5025662;28;20594;-81
2022/09/15 09:16:09;;;;;;;8.57;1.85;;;16.90;99.90;;;;;;5023923;28;20052;-82
2022/09/15 09:18:45;;;;;;;6.30;1.40;;;17.00;99.90;;;;;;5006842;28;20147;-84
2022/09/15 09:21:18;;;;;;;6.65;1.40;;;17.10;99.90;;;;;;5024118;28;20111;-81
2022/09/15 09:23:48;;;;;;;7.75;1.15;;;17.20;99.90;;;;;;5026146;28;20094;-81
2022/09/15 09:26:14;;;;;;;7.18;1.30;;;17.30;99.90;;;;;;5023748;28;20578;-81
2022/09/15 09:28:51;;;;;;;6.53;1.30;;;17.40;99.90;;;;;;5026186;28;20102;-82
2022/09/15 09:31:23;;;;;;;7.43;1.45;;;17.50;99.90;;;;;;5018027;28;20042;-84
2022/09/15 09:34:17;;;;;;;4.38;1.15;;;17.50;99.90;;;;;;5030375;28;20488;-85
2022/09/15 09:36:42;;;;;;;7.13;1.20;;;17.60;99.90;;;;;;5022224;28;20072;-81
2022/09/15 09:39:14;;;;;;;8.18;1.65;;;17.60;99.90;;;;;;5004477;28;20083;-81
2022/09/15 09:41:40;;;;;;;10.88;1.70;;;17.60;99.90;;;;;;5021295;28;20041;-81
2022/09/15 09:44:12;;;;;;;5.20;1.33;;;17.70;99.90;;;;;;5022249;28;20041;-80
2022/09/15 09:46:38;;;;;;;6.55;1.52;;;17.80;99.90;;;;;;5022306;28;20539;-84
2022/09/15 09:49:22;;;;;;;6.50;1.20;;;17.90;99.90;;;;;;5021251;28;20052;-83
2022/09/15 09:51:58;;;;;;;5.65;1.30;;;18.00;99.90;;;;;;5026568;28;20444;-86
2022/09/15 09:54:27;;;;;;;6.88;1.40;;;18.10;99.90;;;;;;5025217;28;20610;-85
2022/09/15 09:57:15;;;;;;;5.50;1.10;;;18.10;99.90;;;;;;5027610;28;20056;-86
2022/09/15 09:59:48;;;;;;;5.38;1.30;;;18.10;99.90;;;;;;5026114;28;20045;-86
2022/09/15 10:02:18;;;;;;;4.53;1.00;;;18.10;99.90;;;;;;5018153;28;20469;-86
2022/09/15 10:04:52;;;;;;;6.80;1.10;;;18.10;99.90;;;;;;5005558;28;20053;-85
2022/09/15 10:07:34;;;;;;;5.57;1.23;;;18.10;99.90;;;;;;5019576;28;20045;-88
2022/09/15 10:10:27;;;;;;;4.25;0.90;;;18.10;99.60;;;;;;5022091;28;20052;-83
2022/09/15 10:12:58;;;;;;;5.60;1.00;;;18.10;98.10;;;;;;4995803;28;20054;-86
2022/09/15 10:15:24;;;;;;;4.88;1.17;;;18.00;99.90;;;;;;4982018;28;20046;-85
2022/09/15 10:17:52;;;;;;;4.72;1.15;;;18.00;99.90;;;;;;4984567;28;20046;-85
2022/09/15 10:20:24;;;;;;;5.47;1.23;;;18.10;99.90;;;;;;4967370;28;20129;-81
2022/09/15 10:22:50;;;;;;;10.23;1.50;;;18.20;99.90;;;;;;4978616;28;20053;-81
2022/09/15 10:25:22;;;;;;;5.78;1.10;;;18.30;99.90;;;;;;4981742;28;20097;-89
2022/09/15 10:28:13;;;;;;;6.85;1.20;;;18.40;99.90;;;;;;4980693;28;20044;-85
2022/09/15 10:31:02;;;;;;;5.90;1.20;;;18.50;99.90;;;;;;4974793;28;20652;-87
2022/09/15 10:33:33;;;;;;;5.95;1.20;;;18.50;99.90;;;;;;4986949;28;20046;-81
2022/09/15 10:36:19;;;;;;;5.03;1.67;;;18.50;99.90;;;;;;4984967;28;20077;-87
2022/09/15 10:39:09;;;;;;;5.70;1.20;;;18.30;99.90;;;;;;4986694;28;20042;-86
2022/09/15 10:42:05;;;;;;;6.45;1.40;;;18.30;99.90;;;;;;4988389;28;20042;-84
2022/09/15 10:45:10;;;;;;;5.75;1.50;;;18.10;99.90;;;;;;4989690;28;20693;-87
2022/09/15 10:48:29;;;;;;;6.90;1.30;;;18.10;99.90;;;;;;4988291;28;20054;-87
2022/09/15 10:51:24;;;;;;;3.88;1.10;;;18.00;99.90;;;;;;4975918;28;20656;-83
2022/09/15 10:54:16;;;;;;;4.80;1.45;;;18.00;99.90;;;;;;4985589;28;20049;-84
2022/09/15 10:56:48;;;;;;;6.45;1.48;;;18.10;99.90;;;;;;4979074;28;20486;-83
2022/09/15 10:59:16;;;;;;;9.18;1.27;;;18.20;99.90;;;;;;4982734;28;20038;-87
2022/09/15 11:01:52;;;;;;;5.05;1.30;;;18.30;99.90;;;;;;4981299;28;20039;-88
2022/09/15 11:04:36;;;;;;;7.78;1.15;;;18.40;99.90;;;;;;4980700;28;20595;-86
2022/09/15 11:07:37;;;;;;;4.07;0.82;;;18.30;99.90;;;;;;4980964;28;20129;-87
2022/09/15 11:10:22;;;;;;;4.18;1.00;;;18.30;99.60;;;;;;4983416;28;20093;-88
2022/09/15 11:13:05;;;;;;;2.22;0.80;;;18.30;99.20;;;;;;5001102;28;20074;-80
2022/09/15 11:15:59;;;;;;;5.57;1.13;;;18.40;97.30;;;;;;5018367;28;20049;-80
2022/09/15 11:18:58;;;;;;;3.63;0.80;;;18.50;96.10;;;;;;5005100;28;20112;-78
2022/09/15 11:21:47;;;;;;;3.92;1.33;;;18.60;96.90;;;;;;5005533;28;20068;-78
2022/09/15 11:24:21;;;;;;;5.50;1.10;;;18.60;96.80;;;;;;5011129;28;21599;-77
2022/09/15 11:27:08;;;;;;;3.92;0.85;;;18.50;95.60;;;;;;4991512;28;20518;-77
2022/09/15 11:30:06;;;;;;;4.88;1.10;;;18.50;95.00;;;;;;5028900;28;20049;-80
2022/09/15 11:32:43;;;;;;;3.85;1.08;;;18.40;95.90;;;;;;5006520;28;20049;-79
2022/09/15 11:35:32;;;;;;;3.72;1.23;;;18.30;96.30;;;;;;5029965;28;20060;-78
2022/09/15 11:38:33;;;;;;;5.55;1.00;;;18.30;98.30;;;;;;5020216;28;20033;-87
2022/09/15 11:41:17;;;;;;;5.38;1.20;;;18.10;99.90;;;;;;5004866;28;20722;-80
2022/09/15 11:43:55;;;;;;;3.05;1.20;;;18.10;99.90;;;;;;5007178;28;20038;-84
2022/09/15 11:46:47;;;;;;;5.13;1.08;;;17.90;99.90;;;;;;5006248;28;20065;-82
2022/09/15 11:49:44;;;;;;;8.13;1.30;;;17.80;99.90;;;;;;5025442;28;20029;-83
2022/09/15 11:52:21;;;;;;;20.63;13.45;;;17.80;99.90;;;;;;4993796;28;20129;-86
2022/09/15 11:55:27;;;;;;;6.53;1.58;;;17.70;99.90;;;;;;5021368;28;20639;-79
2022/09/15 11:58:07;;;;;;;6.13;1.30;;;17.60;99.90;;;;;;5023696;28;20075;-79
2022/09/15 12:00:37;;;;;;;7.65;1.75;;;17.50;99.90;;;;;;5008644;28;20290;-79
2022/09/15 12:03:24;;;;;;;8.15;1.65;;;17.50;99.90;;;;;;5006107;28;20059;-79
2022/09/15 12:06:02;;;;;;;4.70;1.40;;;17.50;99.90;;;;;;5023064;28;20045;-79
2022/09/15 12:08:36;;;;;;;5.30;1.10;;;17.50;99.90;;;;;;5012027;28;20042;-80
2022/09/15 12:11:09;;;;;;;5.10;1.05;;;17.60;99.90;;;;;;5011079;28;20095;-80
2022/09/15 12:13:36;;;;;;;8.18;1.23;;;17.60;99.90;;;;;;5005175;28;20061;-80
2022/09/15 12:16:02;;;;;;;6.45;1.20;;;17.60;99.90;;;;;;5024282;28;20041;-79
2022/09/15 12:18:44;;;;;;;6.55;1.20;;;17.60;99.90;;;;;;5025899;28;20080;-79
2022/09/15 12:21:28;;;;;;;6.85;1.60;;;17.60;99.90;;;;;;5024611;28;20050;-79
2022/09/15 12:24:06;;;;;;;5.40;1.30;;;17.60;99.90;;;;;;5023645;28;20041;-78
2022/09/15 12:26:33;;;;;;;7.30;1.23;;;17.50;99.90;;;;;;5005388;28;20077;-79
2022/09/15 12:29:19;;;;;;;17.52;1.63;;;17.50;99.90;;;;;;5031051;28;20100;-80
2022/09/15 12:31:45;;;;;;;5.00;1.27;;;17.50;99.90;;;;;;5027279;28;20047;-79
2022/09/15 12:34:34;;;;;;;6.30;1.40;;;17.50;99.90;;;;;;5022388;28;20076;-80
2022/09/15 12:37:38;;;;;;;5.97;1.38;;;17.70;99.90;;;;;;5026377;28;20060;-79
2022/09/15 12:40:06;;;;;;;7.88;1.35;;;17.90;99.90;;;;;;4998522;28;20129;-80
2022/09/15 12:42:36;;;;;;;6.40;1.52;;;18.00;99.90;;;;;;5025137;28;20041;-80
2022/09/15 12:45:05;;;;;;;4.53;1.40;;;18.10;99.90;;;;;;5005643;28;20088;-79
2022/09/15 12:47:47;;;;;;;4.93;1.40;;;18.10;99.90;;;;;;5025447;28;20133;-79
2022/09/15 12:50:13;;;;;;;4.15;1.15;;;18.20;99.90;;;;;;5023127;28;20046;-85
2022/09/15 12:52:57;;;;;;;5.07;1.23;;;18.20;99.90;;;;;;5023779;28;20037;-84
2022/09/15 12:55:33;;;;;;;6.63;1.20;;;18.10;99.90;;;;;;5024470;28;20048;-83
2022/09/15 12:58:14;;;;;;;4.75;1.02;;;18.20;99.90;;;;;;5007467;28;20052;-83
2022/09/15 13:00:42;;;;;;;4.50;1.15;;;18.40;99.90;;;;;;5027293;28;20072;-84
2022/09/15 13:03:54;;;;;;;2.88;1.02;;;18.50;99.90;;;;;;5022298;28;20060;-82
2022/09/15 13:06:22;;;;;;;1.95;0.70;;;18.50;99.90;;;;;;5023370;28;20037;-79
2022/09/15 13:09:00;;;;;;;2.60;0.73;;;18.60;99.90;;;;;;5020460;28;20049;-78
2022/09/15 13:11:43;;;;;;;2.22;1.10;;;18.50;99.20;;;;;;5023554;28;20108;-78
2022/09/15 13:14:40;;;;;;;5.05;0.80;;;18.50;96.80;;;;;;5006561;28;20056;-78
2022/09/15 13:17:10;;;;;;;3.63;1.00;;;18.50;97.70;;;;;;5004925;28;20049;-79